Terminal Aerodrome Forecast
Issued by NWS

Home | Current Version | Previous Version | Text Only | Print | Product List | Glossary On
Versions: 1 2 3 4 5 6 7 8 9 10 11 12 13 14 15 16 17 18 19 20 21 22
000
FTUS43 KDLH 220600 AAB
TAFBRD
TAF AMD
KBRD 220624Z 2206/2306 00000KT 2SM BR SKC
      TEMPO 2209/2212 3/4SM BR SCT003
     FM221300 VRB02KT P6SM SKC
     FM221600 25008KT P6SM SKC
     FM230000 21003KT P6SM SKC=

USA.gov is the U.S. government's official web portal to all federal, state and local government web resources and services.